sensor_id;sensor_type;location;lat;lon;timestamp;temperature;humidity
73643;DHT22;61938;48.652;9.292;2024-03-07T00:00:11;6.50;99.90
73643;DHT22;61938;48.652;9.292;2024-03-07T00:02:45;6.50;99.90
73643;DHT22;61938;48.652;9.292;2024-03-07T00:05:11;6.50;99.90
73643;DHT22;61938;48.652;9.292;2024-03-07T00:07:38;6.50;99.90
73643;DHT22;61938;48.652;9.292;2024-03-07T00:10:04;6.50;99.90
73643;DHT22;61938;48.652;9.292;2024-03-07T00:12:35;6.40;99.90
73643;DHT22;61938;48.652;9.292;2024-03-07T00:15:02;6.40;99.90
73643;DHT22;61938;48.652;9.292;2024-03-07T00:17:28;6.40;99.90
73643;DHT22;61938;48.652;9.292;2024-03-07T00:19:54;6.40;99.90
73643;DHT22;61938;48.652;9.292;2024-03-07T00:22:20;6.40;99.90
73643;DHT22;61938;48.652;9.292;2024-03-07T00:24:45;6.30;99.90
73643;DHT22;61938;48.652;9.292;2024-03-07T00:27:13;6.30;99.90
73643;DHT22;61938;48.652;9.292;2024-03-07T00:29:40;6.30;99.90
73643;DHT22;61938;48.652;9.292;2024-03-07T00:32:06;6.20;99.90
73643;DHT22;61938;48.652;9.292;2024-03-07T00:34:31;6.20;99.90
73643;DHT22;61938;48.652;9.292;2024-03-07T00:36:57;6.20;99.90
73643;DHT22;61938;48.652;9.292;2024-03-07T00:39:24;6.20;99.90
73643;DHT22;61938;48.652;9.292;2024-03-07T00:41:50;6.10;99.90
73643;DHT22;61938;48.652;9.292;2024-03-07T00:44:15;6.20;99.90
73643;DHT22;61938;48.652;9.292;2024-03-07T00:46:41;6.10;99.90
73643;DHT22;61938;48.652;9.292;2024-03-07T00:49:07;6.20;99.90
73643;DHT22;61938;48.652;9.292;2024-03-07T00:51:32;6.10;99.90
73643;DHT22;61938;48.652;9.292;2024-03-07T00:53:58;6.20;99.90
73643;DHT22;61938;48.652;9.292;2024-03-07T00:56:23;6.10;99.90
73643;DHT22;61938;48.652;9.292;2024-03-07T00:58:49;6.10;99.90
73643;DHT22;61938;48.652;9.292;2024-03-07T01:01:15;6.10;99.90
73643;DHT22;61938;48.652;9.292;2024-03-07T01:03:41;6.10;99.90
73643;DHT22;61938;48.652;9.292;2024-03-07T01:06:07;6.00;99.90
73643;DHT22;61938;48.652;9.292;2024-03-07T01:08:35;6.00;99.90
73643;DHT22;61938;48.652;9.292;2024-03-07T01:11:02;5.90;99.90
73643;DHT22;61938;48.652;9.292;2024-03-07T01:13:40;5.90;99.90
73643;DHT22;61938;48.652;9.292;2024-03-07T01:16:07;5.90;99.90
73643;DHT22;61938;48.652;9.292;2024-03-07T01:18:33;5.90;99.90
73643;DHT22;61938;48.652;9.292;2024-03-07T01:21:02;5.90;99.90
73643;DHT22;61938;48.652;9.292;2024-03-07T01:23:28;5.80;99.90
73643;DHT22;61938;48.652;9.292;2024-03-07T01:25:58;5.80;99.90
73643;DHT22;61938;48.652;9.292;2024-03-07T01:28:24;5.80;99.90
73643;DHT22;61938;48.652;9.292;2024-03-07T01:30:53;5.80;99.90
73643;DHT22;61938;48.652;9.292;2024-03-07T01:33:19;5.70;99.90
73643;DHT22;61938;48.652;9.292;2024-03-07T01:35:45;5.70;99.90
73643;DHT22;61938;48.652;9.292;2024-03-07T01:38:11;5.70;99.90
73643;DHT22;61938;48.652;9.292;2024-03-07T01:40:39;5.70;99.90
73643;DHT22;61938;48.652;9.292;2024-03-07T01:43:05;5.60;99.90
73643;DHT22;61938;48.652;9.292;2024-03-07T01:45:38;5.60;99.90
73643;DHT22;61938;48.652;9.292;2024-03-07T01:48:09;5.50;99.90
73643;DHT22;61938;48.652;9.292;2024-03-07T01:50:38;5.40;99.90
73643;DHT22;61938;48.652;9.292;2024-03-07T01:53:04;5.40;99.90
73643;DHT22;61938;48.652;9.292;2024-03-07T01:55:31;5.40;99.90
73643;DHT22;61938;48.652;9.292;2024-03-07T01:57:59;5.40;99.90
73643;DHT22;61938;48.652;9.292;2024-03-07T02:00:27;5.30;99.90
73643;DHT22;61938;48.652;9.292;2024-03-07T02:02:53;5.30;99.90
73643;DHT22;61938;48.652;9.292;2024-03-07T02:05:20;5.20;99.90
73643;DHT22;61938;48.652;9.292;2024-03-07T02:07:46;5.20;99.90
73643;DHT22;61938;48.652;9.292;2024-03-07T02:10:11;5.20;99.90
73643;DHT22;61938;48.652;9.292;2024-03-07T02:12:37;5.20;99.90
73643;DHT22;61938;48.652;9.292;2024-03-07T02:15:02;5.10;99.90
73643;DHT22;61938;48.652;9.292;2024-03-07T02:17:28;5.10;99.90
73643;DHT22;61938;48.652;9.292;2024-03-07T02:19:54;5.10;99.90
73643;DHT22;61938;48.652;9.292;2024-03-07T02:22:19;5.10;99.90
73643;DHT22;61938;48.652;9.292;2024-03-07T02:24:46;5.10;99.90
73643;DHT22;61938;48.652;9.292;2024-03-07T02:27:12;5.10;99.90
73643;DHT22;61938;48.652;9.292;2024-03-07T02:29:37;5.00;99.90
73643;DHT22;61938;48.652;9.292;2024-03-07T02:32:03;5.00;99.90
73643;DHT22;61938;48.652;9.292;2024-03-07T02:34:29;5.00;99.90
73643;DHT22;61938;48.652;9.292;2024-03-07T02:36:55;4.90;99.90
73643;DHT22;61938;48.652;9.292;2024-03-07T02:39:21;4.90;99.90
73643;DHT22;61938;48.652;9.292;2024-03-07T02:41:47;4.90;99.90
73643;DHT22;61938;48.652;9.292;2024-03-07T02:44:16;4.90;99.90
73643;DHT22;61938;48.652;9.292;2024-03-07T02:46:42;4.80;99.90
73643;DHT22;61938;48.652;9.292;2024-03-07T02:49:07;4.70;99.90
73643;DHT22;61938;48.652;9.292;2024-03-07T02:51:33;4.70;99.90
73643;DHT22;61938;48.652;9.292;2024-03-07T02:53:59;4.60;99.90
73643;DHT22;61938;48.652;9.292;2024-03-07T02:56:24;4.60;99.90
73643;DHT22;61938;48.652;9.292;2024-03-07T02:58:51;4.60;99.90
73643;DHT22;61938;48.652;9.292;2024-03-07T03:01:17;4.60;99.90
73643;DHT22;61938;48.652;9.292;2024-03-07T03:03:43;4.50;99.90
73643;DHT22;61938;48.652;9.292;2024-03-07T03:06:09;4.50;99.90
73643;DHT22;61938;48.652;9.292;2024-03-07T03:08:35;4.50;99.90
73643;DHT22;61938;48.652;9.292;2024-03-07T03:11:01;4.40;99.90
73643;DHT22;61938;48.652;9.292;2024-03-07T03:13:27;4.40;99.90
73643;DHT22;61938;48.652;9.292;2024-03-07T03:15:56;4.30;99.90
73643;DHT22;61938;48.652;9.292;2024-03-07T03:18:22;4.30;99.90
73643;DHT22;61938;48.652;9.292;2024-03-07T03:20:49;4.30;99.90
73643;DHT22;61938;48.652;9.292;2024-03-07T03:23:14;4.20;99.90
73643;DHT22;61938;48.652;9.292;2024-03-07T03:25:41;4.20;99.90
73643;DHT22;61938;48.652;9.292;2024-03-07T03:28:07;4.20;99.90
73643;DHT22;61938;48.652;9.292;2024-03-07T03:30:38;4.20;99.90
73643;DHT22;61938;48.652;9.292;2024-03-07T03:33:05;4.10;99.90
73643;DHT22;61938;48.652;9.292;2024-03-07T03:35:32;4.10;99.90
73643;DHT22;61938;48.652;9.292;2024-03-07T03:37:57;4.00;99.90
73643;DHT22;61938;48.652;9.292;2024-03-07T03:40:23;4.00;99.90
73643;DHT22;61938;48.652;9.292;2024-03-07T03:42:49;3.90;99.90
73643;DHT22;61938;48.652;9.292;2024-03-07T03:45:14;3.90;99.90
73643;DHT22;61938;48.652;9.292;2024-03-07T03:47:41;3.90;99.90
73643;DHT22;61938;48.652;9.292;2024-03-07T03:50:09;3.80;99.90
73643;DHT22;61938;48.652;9.292;2024-03-07T03:52:35;3.80;99.90
73643;DHT22;61938;48.652;9.292;2024-03-07T03:55:02;3.70;99.90
73643;DHT22;61938;48.652;9.292;2024-03-07T03:57:29;3.70;99.90
73643;DHT22;61938;48.652;9.292;2024-03-07T03:59:58;3.70;99.90
73643;DHT22;61938;48.652;9.292;2024-03-07T04:02:25;3.60;99.90
73643;DHT22;61938;48.652;9.292;2024-03-07T04:04:51;3.60;99.90
73643;DHT22;61938;48.652;9.292;2024-03-07T04:07:18;3.60;99.90
73643;DHT22;61938;48.652;9.292;2024-03-07T04:09:45;3.50;99.90
73643;DHT22;61938;48.652;9.292;2024-03-07T04:12:11;3.50;99.90
73643;DHT22;61938;48.652;9.292;2024-03-07T04:14:43;3.50;99.90
73643;DHT22;61938;48.652;9.292;2024-03-07T04:17:11;3.50;99.90
73643;DHT22;61938;48.652;9.292;2024-03-07T04:19:41;3.40;99.90
73643;DHT22;61938;48.652;9.292;2024-03-07T04:22:07;3.30;99.90
73643;DHT22;61938;48.652;9.292;2024-03-07T04:24:34;3.30;99.90
73643;DHT22;61938;48.652;9.292;2024-03-07T04:27:03;3.30;99.90
73643;DHT22;61938;48.652;9.292;2024-03-07T04:29:33;3.20;99.90
73643;DHT22;61938;48.652;9.292;2024-03-07T04:31:59;3.20;99.90
73643;DHT22;61938;48.652;9.292;2024-03-07T04:34:26;3.20;99.90
73643;DHT22;61938;48.652;9.292;2024-03-07T04:36:53;3.20;99.90
73643;DHT22;61938;48.652;9.292;2024-03-07T04:39:18;3.10;99.90
73643;DHT22;61938;48.652;9.292;2024-03-07T04:41:53;3.10;99.90
73643;DHT22;61938;48.652;9.292;2024-03-07T04:44:20;3.10;99.90
73643;DHT22;61938;48.652;9.292;2024-03-07T04:46:49;3.10;99.90
73643;DHT22;61938;48.652;9.292;2024-03-07T04:49:15;3.10;99.90
73643;DHT22;61938;48.652;9.292;2024-03-07T04:51:41;3.10;99.90
73643;DHT22;61938;48.652;9.292;2024-03-07T04:54:06;3.10;99.90
73643;DHT22;61938;48.652;9.292;2024-03-07T04:56:32;3.10;99.90
73643;DHT22;61938;48.652;9.292;2024-03-07T04:58:57;3.00;99.90
73643;DHT22;61938;48.652;9.292;2024-03-07T05:01:23;3.00;99.90
73643;DHT22;61938;48.652;9.292;2024-03-07T05:03:50;3.00;99.90
73643;DHT22;61938;48.652;9.292;2024-03-07T05:06:17;3.00;99.90
73643;DHT22;61938;48.652;9.292;2024-03-07T05:08:43;3.00;99.90
73643;DHT22;61938;48.652;9.292;2024-03-07T05:11:09;3.00;99.90
73643;DHT22;61938;48.652;9.292;2024-03-07T05:13:35;2.90;99.90
73643;DHT22;61938;48.652;9.292;2024-03-07T05:16:02;2.90;99.90
73643;DHT22;61938;48.652;9.292;2024-03-07T05:18:28;2.90;99.90
73643;DHT22;61938;48.652;9.292;2024-03-07T05:20:53;2.90;99.90
73643;DHT22;61938;48.652;9.292;2024-03-07T05:23:20;2.90;99.90
73643;DHT22;61938;48.652;9.292;2024-03-07T05:25:45;2.80;99.90
73643;DHT22;61938;48.652;9.292;2024-03-07T05:28:11;2.90;99.90
73643;DHT22;61938;48.652;9.292;2024-03-07T05:30:37;2.90;99.90
73643;DHT22;61938;48.652;9.292;2024-03-07T05:33:03;2.80;99.90
73643;DHT22;61938;48.652;9.292;2024-03-07T05:35:28;2.80;99.90
73643;DHT22;61938;48.652;9.292;2024-03-07T05:37:57;2.80;99.90
73643;DHT22;61938;48.652;9.292;2024-03-07T05:40:23;2.80;99.90
73643;DHT22;61938;48.652;9.292;2024-03-07T05:42:49;2.80;99.90
73643;DHT22;61938;48.652;9.292;2024-03-07T05:45:14;2.80;99.90
73643;DHT22;61938;48.652;9.292;2024-03-07T05:47:40;2.80;99.90
73643;DHT22;61938;48.652;9.292;2024-03-07T05:50:06;2.70;99.90
73643;DHT22;61938;48.652;9.292;2024-03-07T05:52:35;2.80;99.90
73643;DHT22;61938;48.652;9.292;2024-03-07T05:55:07;2.70;99.90
73643;DHT22;61938;48.652;9.292;2024-03-07T05:57:33;2.80;99.90
73643;DHT22;61938;48.652;9.292;2024-03-07T05:59:58;2.80;99.90
73643;DHT22;61938;48.652;9.292;2024-03-07T06:02:24;2.80;99.90
73643;DHT22;61938;48.652;9.292;2024-03-07T06:04:49;2.70;99.90
73643;DHT22;61938;48.652;9.292;2024-03-07T06:07:15;2.70;99.90
73643;DHT22;61938;48.652;9.292;2024-03-07T06:09:40;2.70;99.90
73643;DHT22;61938;48.652;9.292;2024-03-07T06:12:06;2.70;99.90
73643;DHT22;61938;48.652;9.292;2024-03-07T06:14:34;2.70;99.90
73643;DHT22;61938;48.652;9.292;2024-03-07T06:16:59;2.70;99.90
73643;DHT22;61938;48.652;9.292;2024-03-07T06:19:26;2.80;99.90
73643;DHT22;61938;48.652;9.292;2024-03-07T06:21:51;2.70;99.90
73643;DHT22;61938;48.652;9.292;2024-03-07T06:24:19;2.70;99.90
73643;DHT22;61938;48.652;9.292;2024-03-07T06:26:45;2.70;99.90
73643;DHT22;61938;48.652;9.292;2024-03-07T06:29:24;2.60;99.90
73643;DHT22;61938;48.652;9.292;2024-03-07T06:31:50;2.70;99.90
73643;DHT22;61938;48.652;9.292;2024-03-07T06:34:15;2.70;99.90
73643;DHT22;61938;48.652;9.292;2024-03-07T06:36:41;2.60;99.90
73643;DHT22;61938;48.652;9.292;2024-03-07T06:39:06;2.60;99.90
73643;DHT22;61938;48.652;9.292;2024-03-07T06:41:36;2.60;99.90
73643;DHT22;61938;48.652;9.292;2024-03-07T06:44:02;2.50;99.90
73643;DHT22;61938;48.652;9.292;2024-03-07T06:46:28;2.60;99.90
73643;DHT22;61938;48.652;9.292;2024-03-07T06:48:54;2.60;99.90
73643;DHT22;61938;48.652;9.292;2024-03-07T06:51:21;2.60;99.90
73643;DHT22;61938;48.652;9.292;2024-03-07T06:53:47;2.60;99.90
73643;DHT22;61938;48.652;9.292;2024-03-07T06:56:14;2.60;99.90
73643;DHT22;61938;48.652;9.292;2024-03-07T06:58:40;2.60;99.90
73643;DHT22;61938;48.652;9.292;2024-03-07T07:01:05;2.70;99.90
73643;DHT22;61938;48.652;9.292;2024-03-07T07:03:35;2.60;99.90
73643;DHT22;61938;48.652;9.292;2024-03-07T07:06:01;2.60;99.90
73643;DHT22;61938;48.652;9.292;2024-03-07T07:08:27;2.60;99.90
73643;DHT22;61938;48.652;9.292;2024-03-07T07:10:55;2.60;99.90
73643;DHT22;61938;48.652;9.292;2024-03-07T07:13:21;2.60;99.90
73643;DHT22;61938;48.652;9.292;2024-03-07T07:15:47;2.60;99.90
73643;DHT22;61938;48.652;9.292;2024-03-07T07:18:13;2.70;99.90
73643;DHT22;61938;48.652;9.292;2024-03-07T07:20:39;2.60;99.90
73643;DHT22;61938;48.652;9.292;2024-03-07T07:23:04;2.60;99.90
73643;DHT22;61938;48.652;9.292;2024-03-07T07:25:30;2.50;99.90
73643;DHT22;61938;48.652;9.292;2024-03-07T07:27:56;2.50;99.90
73643;DHT22;61938;48.652;9.292;2024-03-07T07:30:23;2.60;99.90
73643;DHT22;61938;48.652;9.292;2024-03-07T07:32:52;2.60;99.90
73643;DHT22;61938;48.652;9.292;2024-03-07T07:35:19;2.60;99.90
73643;DHT22;61938;48.652;9.292;2024-03-07T07:37:47;2.60;99.90
73643;DHT22;61938;48.652;9.292;2024-03-07T07:40:18;2.60;99.90
73643;DHT22;61938;48.652;9.292;2024-03-07T07:42:45;2.60;99.90
73643;DHT22;61938;48.652;9.292;2024-03-07T07:45:12;2.60;99.90
73643;DHT22;61938;48.652;9.292;2024-03-07T07:48:04;2.60;99.90
73643;DHT22;61938;48.652;9.292;2024-03-07T07:50:30;2.70;99.90
73643;DHT22;61938;48.652;9.292;2024-03-07T07:52:57;2.70;99.90
73643;DHT22;61938;48.652;9.292;2024-03-07T07:55:27;2.70;99.90
73643;DHT22;61938;48.652;9.292;2024-03-07T07:57:57;2.70;99.90
73643;DHT22;61938;48.652;9.292;2024-03-07T08:00:24;2.70;99.90
73643;DHT22;61938;48.652;9.292;2024-03-07T08:02:52;2.70;99.90
73643;DHT22;61938;48.652;9.292;2024-03-07T08:05:22;2.70;99.90
73643;DHT22;61938;48.652;9.292;2024-03-07T08:07:56;2.70;99.90
73643;DHT22;61938;48.652;9.292;2024-03-07T08:10:24;2.70;99.90
73643;DHT22;61938;48.652;9.292;2024-03-07T08:12:50;2.80;99.90
73643;DHT22;61938;48.652;9.292;2024-03-07T08:15:16;2.70;99.90
73643;DHT22;61938;48.652;9.292;2024-03-07T08:17:46;2.70;99.90
73643;DHT22;61938;48.652;9.292;2024-03-07T08:20:16;3.80;99.90
73643;DHT22;61938;48.652;9.292;2024-03-07T08:22:43;2.70;99.90
73643;DHT22;61938;48.652;9.292;2024-03-07T08:25:14;2.80;99.90
73643;DHT22;61938;48.652;9.292;2024-03-07T08:27:41;2.80;99.90
73643;DHT22;61938;48.652;9.292;2024-03-07T08:30:08;2.70;99.90
73643;DHT22;61938;48.652;9.292;2024-03-07T08:32:41;2.80;99.90
73643;DHT22;61938;48.652;9.292;2024-03-07T08:35:08;2.80;99.90
73643;DHT22;61938;48.652;9.292;2024-03-07T08:37:37;2.80;99.90
73643;DHT22;61938;48.652;9.292;2024-03-07T08:40:04;2.80;99.90
73643;DHT22;61938;48.652;9.292;2024-03-07T08:42:30;2.80;99.90
73643;DHT22;61938;48.652;9.292;2024-03-07T08:45:02;2.90;99.90
73643;DHT22;61938;48.652;9.292;2024-03-07T08:47:34;2.90;99.90
73643;DHT22;61938;48.652;9.292;2024-03-07T08:50:04;2.90;99.90
73643;DHT22;61938;48.652;9.292;2024-03-07T08:52:34;3.00;99.90
73643;DHT22;61938;48.652;9.292;2024-03-07T08:55:02;3.00;99.90
73643;DHT22;61938;48.652;9.292;2024-03-07T08:57:28;3.00;99.90
73643;DHT22;61938;48.652;9.292;2024-03-07T08:59:54;3.10;99.90
73643;DHT22;61938;48.652;9.292;2024-03-07T09:02:19;3.00;99.90
73643;DHT22;61938;48.652;9.292;2024-03-07T09:04:45;3.00;99.90
73643;DHT22;61938;48.652;9.292;2024-03-07T09:07:11;3.00;99.90
73643;DHT22;61938;48.652;9.292;2024-03-07T09:09:38;3.00;99.90
73643;DHT22;61938;48.652;9.292;2024-03-07T09:12:04;3.10;99.90
73643;DHT22;61938;48.652;9.292;2024-03-07T09:14:31;3.10;99.90
73643;DHT22;61938;48.652;9.292;2024-03-07T09:16:56;3.20;99.90
73643;DHT22;61938;48.652;9.292;2024-03-07T09:19:23;3.20;99.90
73643;DHT22;61938;48.652;9.292;2024-03-07T09:21:52;3.20;99.90
73643;DHT22;61938;48.652;9.292;2024-03-07T09:24:19;3.20;99.90
73643;DHT22;61938;48.652;9.292;2024-03-07T09:26:50;3.30;99.90
73643;DHT22;61938;48.652;9.292;2024-03-07T09:29:17;3.30;99.90
73643;DHT22;61938;48.652;9.292;2024-03-07T09:31:44;3.30;99.90
73643;DHT22;61938;48.652;9.292;2024-03-07T09:34:09;3.30;99.90
73643;DHT22;61938;48.652;9.292;2024-03-07T09:36:35;3.40;99.90
73643;DHT22;61938;48.652;9.292;2024-03-07T09:39:01;3.30;99.90
73643;DHT22;61938;48.652;9.292;2024-03-07T09:41:27;3.40;99.90
73643;DHT22;61938;48.652;9.292;2024-03-07T09:43:52;3.50;99.90
73643;DHT22;61938;48.652;9.292;2024-03-07T09:46:21;3.50;99.90
73643;DHT22;61938;48.652;9.292;2024-03-07T09:48:48;3.50;99.90
73643;DHT22;61938;48.652;9.292;2024-03-07T09:51:17;3.70;99.90
73643;DHT22;61938;48.652;9.292;2024-03-07T09:53:45;3.60;99.90
73643;DHT22;61938;48.652;9.292;2024-03-07T09:56:12;3.60;99.90
73643;DHT22;61938;48.652;9.292;2024-03-07T09:58:40;3.70;99.90
73643;DHT22;61938;48.652;9.292;2024-03-07T10:01:07;3.80;99.90
73643;DHT22;61938;48.652;9.292;2024-03-07T10:03:35;3.80;99.90
73643;DHT22;61938;48.652;9.292;2024-03-07T10:06:01;3.80;99.90
73643;DHT22;61938;48.652;9.292;2024-03-07T10:08:27;3.90;99.90
73643;DHT22;61938;48.652;9.292;2024-03-07T10:10:55;3.90;99.90
73643;DHT22;61938;48.652;9.292;2024-03-07T10:13:21;3.90;99.90
73643;DHT22;61938;48.652;9.292;2024-03-07T10:15:57;4.00;99.90
73643;DHT22;61938;48.652;9.292;2024-03-07T10:18:25;4.00;99.90
73643;DHT22;61938;48.652;9.292;2024-03-07T10:20:56;4.00;99.90
73643;DHT22;61938;48.652;9.292;2024-03-07T10:23:24;4.00;99.90
73643;DHT22;61938;48.652;9.292;2024-03-07T10:25:50;4.10;99.90
73643;DHT22;61938;48.652;9.292;2024-03-07T10:28:19;4.10;99.90
73643;DHT22;61938;48.652;9.292;2024-03-07T10:30:46;4.10;99.90
73643;DHT22;61938;48.652;9.292;2024-03-07T10:33:13;4.10;99.90
73643;DHT22;61938;48.652;9.292;2024-03-07T10:35:38;4.10;99.90
73643;DHT22;61938;48.652;9.292;2024-03-07T10:38:04;4.20;99.90
73643;DHT22;61938;48.652;9.292;2024-03-07T10:40:32;4.20;99.90
73643;DHT22;61938;48.652;9.292;2024-03-07T10:42:58;4.20;99.90
73643;DHT22;61938;48.652;9.292;2024-03-07T10:45:28;4.30;99.90
73643;DHT22;61938;48.652;9.292;2024-03-07T10:47:57;4.30;99.90
73643;DHT22;61938;48.652;9.292;2024-03-07T10:50:56;4.20;99.90
73643;DHT22;61938;48.652;9.292;2024-03-07T10:53:34;4.30;99.90
73643;DHT22;61938;48.652;9.292;2024-03-07T10:59:24;4.30;99.90
73643;DHT22;61938;48.652;9.292;2024-03-07T11:01:59;4.40;99.90
73643;DHT22;61938;48.652;9.292;2024-03-07T11:04:32;4.40;99.90
73643;DHT22;61938;48.652;9.292;2024-03-07T11:06:58;4.40;99.90
73643;DHT22;61938;48.652;9.292;2024-03-07T11:09:25;4.40;99.90
73643;DHT22;61938;48.652;9.292;2024-03-07T11:11:55;4.40;99.90
73643;DHT22;61938;48.652;9.292;2024-03-07T11:14:22;4.50;99.90
73643;DHT22;61938;48.652;9.292;2024-03-07T11:16:49;4.50;99.90
73643;DHT22;61938;48.652;9.292;2024-03-07T11:19:28;4.50;99.90
73643;DHT22;61938;48.652;9.292;2024-03-07T11:21:55;4.60;99.90
73643;DHT22;61938;48.652;9.292;2024-03-07T11:24:28;4.70;99.90
73643;DHT22;61938;48.652;9.292;2024-03-07T11:26:56;4.70;99.90
73643;DHT22;61938;48.652;9.292;2024-03-07T11:29:42;4.70;99.90
73643;DHT22;61938;48.652;9.292;2024-03-07T11:32:14;4.70;99.90
73643;DHT22;61938;48.652;9.292;2024-03-07T11:34:44;4.80;99.90
73643;DHT22;61938;48.652;9.292;2024-03-07T11:37:18;4.80;99.90
73643;DHT22;61938;48.652;9.292;2024-03-07T11:39:48;4.90;99.90
73643;DHT22;61938;48.652;9.292;2024-03-07T11:42:28;5.00;99.90
73643;DHT22;61938;48.652;9.292;2024-03-07T11:44:54;5.10;99.90
73643;DHT22;61938;48.652;9.292;2024-03-07T11:47:26;5.10;99.90
73643;DHT22;61938;48.652;9.292;2024-03-07T11:49:55;5.20;99.90
73643;DHT22;61938;48.652;9.292;2024-03-07T11:52:31;5.20;99.90
73643;DHT22;61938;48.652;9.292;2024-03-07T11:54:58;5.00;99.90
73643;DHT22;61938;48.652;9.292;2024-03-07T11:57:30;5.30;99.90
73643;DHT22;61938;48.652;9.292;2024-03-07T11:59:59;5.30;99.90
73643;DHT22;61938;48.652;9.292;2024-03-07T12:02:27;5.40;99.90
73643;DHT22;61938;48.652;9.292;2024-03-07T12:04:53;5.40;99.90
73643;DHT22;61938;48.652;9.292;2024-03-07T12:07:19;5.50;99.90
73643;DHT22;61938;48.652;9.292;2024-03-07T12:09:48;5.50;99.90
73643;DHT22;61938;48.652;9.292;2024-03-07T12:12:19;5.60;99.90
73643;DHT22;61938;48.652;9.292;2024-03-07T12:14:47;5.60;99.90
73643;DHT22;61938;48.652;9.292;2024-03-07T12:17:14;5.70;99.90
73643;DHT22;61938;48.652;9.292;2024-03-07T12:19:42;5.70;99.90
73643;DHT22;61938;48.652;9.292;2024-03-07T12:22:08;5.80;99.90
73643;DHT22;61938;48.652;9.292;2024-03-07T12:24:40;5.90;99.90
73643;DHT22;61938;48.652;9.292;2024-03-07T12:27:12;5.90;99.90
73643;DHT22;61938;48.652;9.292;2024-03-07T12:29:42;5.90;99.90
73643;DHT22;61938;48.652;9.292;2024-03-07T12:32:12;6.00;99.90
73643;DHT22;61938;48.652;9.292;2024-03-07T12:34:43;6.00;99.90
73643;DHT22;61938;48.652;9.292;2024-03-07T12:37:11;6.00;99.90
73643;DHT22;61938;48.652;9.292;2024-03-07T12:39:41;6.00;99.90
73643;DHT22;61938;48.652;9.292;2024-03-07T12:42:18;6.10;99.90
73643;DHT22;61938;48.652;9.292;2024-03-07T12:44:45;6.10;99.90
73643;DHT22;61938;48.652;9.292;2024-03-07T12:47:15;6.20;99.90
73643;DHT22;61938;48.652;9.292;2024-03-07T12:49:44;6.20;99.90
73643;DHT22;61938;48.652;9.292;2024-03-07T12:52:11;6.20;99.90
73643;DHT22;61938;48.652;9.292;2024-03-07T12:54:43;6.20;99.90
73643;DHT22;61938;48.652;9.292;2024-03-07T12:57:12;6.20;99.90
73643;DHT22;61938;48.652;9.292;2024-03-07T12:59:41;6.20;99.90
73643;DHT22;61938;48.652;9.292;2024-03-07T13:02:10;6.20;99.90
73643;DHT22;61938;48.652;9.292;2024-03-07T13:04:36;6.20;99.90
73643;DHT22;61938;48.652;9.292;2024-03-07T13:07:06;6.20;99.90
73643;DHT22;61938;48.652;9.292;2024-03-07T13:09:32;6.30;99.90
73643;DHT22;61938;48.652;9.292;2024-03-07T13:11:58;6.30;99.90
73643;DHT22;61938;48.652;9.292;2024-03-07T13:14:28;6.30;99.90
73643;DHT22;61938;48.652;9.292;2024-03-07T13:17:07;6.30;99.90
73643;DHT22;61938;48.652;9.292;2024-03-07T13:19:33;6.30;99.90
73643;DHT22;61938;48.652;9.292;2024-03-07T13:21:58;6.30;99.90
73643;DHT22;61938;48.652;9.292;2024-03-07T13:24:27;6.30;99.90
73643;DHT22;61938;48.652;9.292;2024-03-07T13:26:53;6.40;99.90
73643;DHT22;61938;48.652;9.292;2024-03-07T13:29:19;6.40;99.90
73643;DHT22;61938;48.652;9.292;2024-03-07T13:31:50;6.40;99.90
73643;DHT22;61938;48.652;9.292;2024-03-07T13:34:17;6.40;99.90
73643;DHT22;61938;48.652;9.292;2024-03-07T13:36:43;6.40;99.90
73643;DHT22;61938;48.652;9.292;2024-03-07T13:39:10;6.40;99.90
73643;DHT22;61938;48.652;9.292;2024-03-07T13:41:41;6.50;99.90
73643;DHT22;61938;48.652;9.292;2024-03-07T13:44:07;6.50;99.90
73643;DHT22;61938;48.652;9.292;2024-03-07T13:46:33;6.50;99.90
73643;DHT22;61938;48.652;9.292;2024-03-07T13:49:03;6.50;99.90
73643;DHT22;61938;48.652;9.292;2024-03-07T13:51:39;6.50;99.90
73643;DHT22;61938;48.652;9.292;2024-03-07T13:54:21;6.50;99.90
73643;DHT22;61938;48.652;9.292;2024-03-07T14:00:09;6.60;99.90
73643;DHT22;61938;48.652;9.292;2024-03-07T14:05:57;6.60;99.90
73643;DHT22;61938;48.652;9.292;2024-03-07T14:08:35;6.60;99.90
73643;DHT22;61938;48.652;9.292;2024-03-07T14:11:37;6.60;99.90
73643;DHT22;61938;48.652;9.292;2024-03-07T14:14:23;6.60;99.90
73643;DHT22;61938;48.652;9.292;2024-03-07T14:19:58;6.60;99.90
73643;DHT22;61938;48.652;9.292;2024-03-07T14:23:14;6.70;99.90
73643;DHT22;61938;48.652;9.292;2024-03-07T14:31:15;6.70;99.90
73643;DHT22;61938;48.652;9.292;2024-03-07T14:36:37;6.70;99.90
73643;DHT22;61938;48.652;9.292;2024-03-07T14:39:02;6.80;99.90
73643;DHT22;61938;48.652;9.292;2024-03-07T14:44:18;6.80;99.90
73643;DHT22;61938;48.652;9.292;2024-03-07T14:46:46;6.80;99.90
73643;DHT22;61938;48.652;9.292;2024-03-07T14:49:16;6.80;99.90
73643;DHT22;61938;48.652;9.292;2024-03-07T14:51:42;6.80;99.90
73643;DHT22;61938;48.652;9.292;2024-03-07T14:54:08;6.80;99.90
73643;DHT22;61938;48.652;9.292;2024-03-07T14:56:34;6.80;99.90
73643;DHT22;61938;48.652;9.292;2024-03-07T14:59:00;6.80;99.90
73643;DHT22;61938;48.652;9.292;2024-03-07T15:01:28;6.80;99.90
73643;DHT22;61938;48.652;9.292;2024-03-07T15:03:56;6.80;99.90
73643;DHT22;61938;48.652;9.292;2024-03-07T15:06:22;6.80;99.90
73643;DHT22;61938;48.652;9.292;2024-03-07T15:08:48;6.80;99.90
73643;DHT22;61938;48.652;9.292;2024-03-07T15:11:37;6.80;99.90
73643;DHT22;61938;48.652;9.292;2024-03-07T15:14:03;6.80;99.90
73643;DHT22;61938;48.652;9.292;2024-03-07T15:16:34;6.90;99.90
73643;DHT22;61938;48.652;9.292;2024-03-07T15:19:06;6.90;99.90
73643;DHT22;61938;48.652;9.292;2024-03-07T15:21:38;6.90;99.90
73643;DHT22;61938;48.652;9.292;2024-03-07T15:24:04;6.80;99.90
73643;DHT22;61938;48.652;9.292;2024-03-07T15:26:30;6.90;99.90
73643;DHT22;61938;48.652;9.292;2024-03-07T15:29:00;6.90;99.90
73643;DHT22;61938;48.652;9.292;2024-03-07T15:31:26;6.90;99.90
73643;DHT22;61938;48.652;9.292;2024-03-07T15:33:52;6.90;99.90
73643;DHT22;61938;48.652;9.292;2024-03-07T15:36:18;6.90;99.90
73643;DHT22;61938;48.652;9.292;2024-03-07T15:38:51;6.80;99.90
73643;DHT22;61938;48.652;9.292;2024-03-07T15:41:17;6.80;99.90
73643;DHT22;61938;48.652;9.292;2024-03-07T15:43:42;6.80;99.90
73643;DHT22;61938;48.652;9.292;2024-03-07T15:46:08;6.80;99.90
73643;DHT22;61938;48.652;9.292;2024-03-07T15:48:37;6.80;99.90
73643;DHT22;61938;48.652;9.292;2024-03-07T15:51:03;6.80;99.90
73643;DHT22;61938;48.652;9.292;2024-03-07T15:53:29;6.80;99.90
73643;DHT22;61938;48.652;9.292;2024-03-07T15:55:54;6.80;99.90
73643;DHT22;61938;48.652;9.292;2024-03-07T15:58:20;6.80;99.90
73643;DHT22;61938;48.652;9.292;2024-03-07T16:00:46;6.80;99.90
73643;DHT22;61938;48.652;9.292;2024-03-07T16:03:13;6.80;99.90
73643;DHT22;61938;48.652;9.292;2024-03-07T16:05:40;6.80;99.90
73643;DHT22;61938;48.652;9.292;2024-03-07T16:08:07;6.80;99.90
73643;DHT22;61938;48.652;9.292;2024-03-07T16:10:35;6.80;99.90
73643;DHT22;61938;48.652;9.292;2024-03-07T16:13:09;6.80;99.90